createdAt,value
2022-08-21T00:01:44.488Z,97715.86
2022-08-21T00:04:13.639Z,97714.91
2022-08-21T00:06:48.287Z,97713.39
2022-08-21T00:09:15.436Z,97711.98
2022-08-21T00:11:42.592Z,97709.19
2022-08-21T00:14:10.190Z,97712.38
2022-08-21T00:16:37.501Z,97711.93
2022-08-21T00:19:07.625Z,97710.92
2022-08-21T00:21:35.899Z,97706.16
2022-08-21T00:24:03.357Z,97701.58
2022-08-21T00:26:30.607Z,97701.86
2022-08-21T00:28:58.937Z,97696.16
2022-08-21T00:31:26.570Z,97699.27
2022-08-21T00:33:59.397Z,97693.64
2022-08-21T00:36:29.032Z,97696.23
2022-08-21T00:38:56.508Z,97692.94
2022-08-21T00:41:37.274Z,97687.14
2022-08-21T00:44:10.452Z,97687.55
2022-08-21T00:46:38.014Z,97685.30
2022-08-21T00:49:06.420Z,97682.52
2022-08-21T00:51:39.480Z,97678.31
2022-08-21T00:54:07.068Z,97674.15
2022-08-21T00:56:44.133Z,97671.36
2022-08-21T00:59:11.275Z,97668.62
2022-08-21T01:01:43.442Z,97668.90
2022-08-21T01:04:10.616Z,97664.56
2022-08-21T01:06:37.740Z,97666.53
2022-08-21T01:09:04.754Z,97666.63
2022-08-21T01:11:34.287Z,97664.05
2022-08-21T01:14:04.881Z,97663.56
2022-08-21T01:16:32.401Z,97656.73
2022-08-21T01:18:59.528Z,97657.05
2022-08-21T01:21:28.745Z,97657.31
2022-08-21T01:23:59.285Z,97657.02
2022-08-21T01:26:34.631Z,97657.45
2022-08-21T01:29:36.014Z,97653.05
2022-08-21T01:32:12.520Z,97653.33
2022-08-21T01:34:42.841Z,97654.42
2022-08-21T01:37:10.299Z,97655.27
2022-08-21T01:39:37.788Z,97655.24
2022-08-21T01:42:05.424Z,97653.08
2022-08-21T01:44:32.696Z,97652.67
2022-08-21T01:47:01.790Z,97652.99
2022-08-21T01:49:28.918Z,97652.31
2022-08-21T01:51:56.172Z,97649.04
2022-08-21T01:54:23.320Z,97648.73
2022-08-21T01:56:52.338Z,97650.50
2022-08-21T01:59:19.662Z,97648.94
2022-08-21T02:01:46.930Z,97648.09
2022-08-21T02:04:15.297Z,97650.40
2022-08-21T02:06:42.549Z,97652.29
2022-08-21T02:09:12.281Z,97657.39
2022-08-21T02:11:41.763Z,97658.09
2022-08-21T02:14:10.294Z,97660.16
2022-08-21T02:16:37.526Z,97658.89
2022-08-21T02:19:04.855Z,97658.05
2022-08-21T02:21:32.424Z,97654.01
2022-08-21T02:24:00.090Z,97652.57
2022-08-21T02:26:30.288Z,97650.28
2022-08-21T02:28:57.567Z,97652.70
2022-08-21T02:31:25.924Z,97650.91
2022-08-21T02:33:53.393Z,97650.90
2022-08-21T02:36:22.539Z,97650.27
2022-08-21T02:38:50.663Z,97647.95
2022-08-21T02:41:18.957Z,97645.73
2022-08-21T02:43:50.896Z,97644.92
2022-08-21T02:47:16.125Z,97642.35
2022-08-21T02:49:43.762Z,97641.09
2022-08-21T02:52:13.677Z,97637.30
2022-08-21T02:54:40.855Z,97640.58
2022-08-21T02:57:07.972Z,97639.31
2022-08-21T02:59:40.346Z,97645.22
2022-08-21T03:02:07.812Z,97645.72
2022-08-21T03:04:35.059Z,97649.42
2022-08-21T03:07:04.972Z,97645.58
2022-08-21T03:09:41.997Z,97649.75
2022-08-21T03:12:22.989Z,97650.67
2022-08-21T03:14:52.588Z,97651.59
2022-08-21T03:17:19.794Z,97652.40
2022-08-21T03:19:58.090Z,97654.40
2022-08-21T03:22:28.120Z,97655.49
2022-08-21T03:24:58.632Z,97657.23
2022-08-21T03:27:25.995Z,97654.70
2022-08-21T03:29:53.783Z,97654.48
2022-08-21T03:32:26.536Z,97662.14
2022-08-21T03:34:53.894Z,97663.13
2022-08-21T03:37:21.069Z,97664.25
2022-08-21T03:39:48.278Z,97665.57
2022-08-21T03:42:15.563Z,97666.73
2022-08-21T03:44:42.800Z,97667.58
2022-08-21T03:47:10.878Z,97670.03
2022-08-21T03:49:40.374Z,97670.52
2022-08-21T03:52:12.959Z,97671.91
2022-08-21T03:54:45.837Z,97669.91
2022-08-21T03:57:13.102Z,97674.77
2022-08-21T03:59:44.679Z,97678.81
2022-08-21T04:02:12.096Z,97681.30
2022-08-21T04:04:39.275Z,97682.94
2022-08-21T04:07:06.496Z,97681.83
2022-08-21T04:09:33.665Z,97684.48
2022-08-21T04:12:01.787Z,97684.79
2022-08-21T04:14:29.587Z,97688.19
2022-08-21T04:16:59.124Z,97687.64
2022-08-21T04:19:26.446Z,97691.98
2022-08-21T04:21:56.164Z,97690.86
2022-08-21T04:24:23.306Z,97687.72
2022-08-21T04:27:19.348Z,97680.46
2022-08-21T04:30:30.230Z,97674.09
2022-08-21T04:33:58.519Z,97675.38
2022-08-21T04:40:05.202Z,97674.95
2022-08-21T04:43:18.683Z,97676.41
2022-08-21T04:46:13.522Z,97675.49
2022-08-21T04:48:41.951Z,97670.51
2022-08-21T04:51:26.797Z,97670.00
2022-08-21T04:57:23.856Z,97664.70
2022-08-21T05:00:14.338Z,97663.71
2022-08-21T05:02:41.884Z,97663.95
2022-08-21T05:05:09.160Z,97664.89
2022-08-21T05:07:41.902Z,97665.75
2022-08-21T05:10:12.521Z,97662.04
2022-08-21T05:12:43.053Z,97661.19
2022-08-21T05:15:13.707Z,97670.85
2022-08-21T05:17:53.696Z,97669.60
2022-08-21T05:20:28.694Z,97673.54
2022-08-21T05:22:56.252Z,97668.58
2022-08-21T05:25:24.046Z,97673.20
2022-08-21T05:27:52.542Z,97674.14
2022-08-21T05:30:20.324Z,97674.05
2022-08-21T05:32:50.009Z,97675.49
2022-08-21T05:35:17.433Z,97675.00
2022-08-21T05:37:44.594Z,97675.10
2022-08-21T05:40:21.486Z,97678.27
2022-08-21T05:42:55.816Z,97682.02
2022-08-21T05:45:42.096Z,97682.92
2022-08-21T05:48:19.554Z,97684.48
2022-08-21T05:50:47.670Z,97683.84
2022-08-21T05:53:15.502Z,97684.25
2022-08-21T05:55:46.151Z,97681.03
2022-08-21T05:58:18.593Z,97679.71
2022-08-21T06:00:48.044Z,97679.02
2022-08-21T06:03:18.262Z,97678.10
2022-08-21T06:05:46.763Z,97676.85
2022-08-21T06:08:15.105Z,97679.14
2022-08-21T06:10:42.341Z,97677.41
2022-08-21T06:13:09.493Z,97676.41
2022-08-21T06:15:36.643Z,97675.63
2022-08-21T06:18:04.002Z,97677.62
2022-08-21T06:20:33.945Z,97676.84
2022-08-21T06:23:01.164Z,97682.08
2022-08-21T06:25:28.834Z,97679.25
2022-08-21T06:28:02.768Z,97684.55
2022-08-21T06:30:30.132Z,97685.70
2022-08-21T06:32:57.850Z,97692.48
2022-08-21T06:35:25.848Z,97698.31
2022-08-21T06:37:53.381Z,97695.23
2022-08-21T06:40:20.561Z,97699.96
2022-08-21T06:42:48.841Z,97696.23
2022-08-21T06:45:16.576Z,97694.85
2022-08-21T06:47:43.830Z,97688.11
2022-08-21T06:50:11.284Z,97684.66
2022-08-21T06:52:38.639Z,97682.61
2022-08-21T06:55:07.725Z,97684.77
2022-08-21T06:57:34.981Z,97680.14
2022-08-21T07:00:04.305Z,97681.35
2022-08-21T07:02:31.760Z,97681.04
2022-08-21T07:04:59.398Z,97675.38
2022-08-21T07:07:26.553Z,97675.68
2022-08-21T07:09:53.907Z,97673.83
2022-08-21T07:12:21.258Z,97680.39
2022-08-21T07:14:48.741Z,97675.05
2022-08-21T07:17:15.972Z,97672.74
2022-08-21T07:19:43.230Z,97672.67
2022-08-21T07:22:13.035Z,97674.90
2022-08-21T07:24:40.180Z,97674.71
2022-08-21T07:27:10.066Z,97674.03
2022-08-21T07:29:37.652Z,97667.50
2022-08-21T07:32:06.031Z,97669.20
2022-08-21T07:34:33.396Z,97670.14
2022-08-21T07:37:00.642Z,97664.90
2022-08-21T07:39:33.754Z,97665.68
2022-08-21T07:42:02.997Z,97664.67
2022-08-21T07:44:35.539Z,97666.23
2022-08-21T07:47:02.775Z,97668.87
2022-08-21T07:49:29.903Z,97664.20
2022-08-21T07:51:57.993Z,97663.02
2022-08-21T07:54:33.677Z,97664.06
2022-08-21T07:57:02.727Z,97660.88
2022-08-21T07:59:30.181Z,97658.66
2022-08-21T08:01:57.983Z,97665.48
2022-08-21T08:04:26.615Z,97660.95
2022-08-21T08:06:54.303Z,97658.00
2022-08-21T08:09:21.445Z,97658.04
2022-08-21T08:11:48.691Z,97654.12
2022-08-21T08:14:17.069Z,97653.84
2022-08-21T08:16:44.215Z,97651.31
2022-08-21T08:19:11.471Z,97645.54
2022-08-21T08:21:39.755Z,97648.02
2022-08-21T08:24:18.825Z,97644.88
2022-08-21T08:26:53.502Z,97645.71
2022-08-21T08:29:23.194Z,97643.23
2022-08-21T08:31:50.490Z,97641.48
2022-08-21T08:34:25.398Z,97641.25
2022-08-21T08:36:52.909Z,97643.18
2022-08-21T08:39:26.418Z,97643.38
2022-08-21T08:42:33.661Z,97641.59
2022-08-21T08:45:08.175Z,97646.09
2022-08-21T08:47:37.961Z,97644.75
2022-08-21T08:50:09.322Z,97635.69
2022-08-21T08:52:41.393Z,97636.00
2022-08-21T08:55:41.054Z,97636.48
2022-08-21T08:58:09.784Z,97630.88
2022-08-21T09:00:38.860Z,97635.52
2022-08-21T09:03:06.029Z,97627.42
2022-08-21T09:06:01.650Z,97626.06
2022-08-21T09:08:42.319Z,97623.80
2022-08-21T09:11:29.668Z,97621.70
2022-08-21T09:14:13.648Z,97619.79
2022-08-21T09:16:50.287Z,97623.34
2022-08-21T09:19:34.195Z,97620.80
2022-08-21T09:22:10.987Z,97622.03
2022-08-21T09:24:44.267Z,97619.21
2022-08-21T09:27:16.160Z,97618.80
2022-08-21T09:29:49.117Z,97615.44
2022-08-21T09:32:19.148Z,97616.49
2022-08-21T09:34:58.873Z,97614.98
2022-08-21T09:37:36.771Z,97615.02
2022-08-21T09:40:20.186Z,97611.13
2022-08-21T09:42:56.349Z,97613.96
2022-08-21T09:45:24.150Z,97611.20
2022-08-21T09:47:51.691Z,97607.70
2022-08-21T09:50:24.213Z,97610.52
2022-08-21T09:52:52.568Z,97605.71
2022-08-21T09:55:49.192Z,97608.91
2022-08-21T09:58:17.364Z,97603.18
2022-08-21T10:00:44.975Z,97597.26
2022-08-21T10:03:20.833Z,97599.78
2022-08-21T10:06:02.087Z,97596.20
2022-08-21T10:08:30.555Z,97598.59
2022-08-21T10:11:03.115Z,97595.38
2022-08-21T10:13:54.640Z,97598.09
2022-08-21T10:17:06.054Z,97596.63
2022-08-21T10:20:12.358Z,97601.06
2022-08-21T10:23:05.959Z,97598.27
2022-08-21T10:25:39.516Z,97595.05
2022-08-21T10:28:30.766Z,97590.20
2022-08-21T10:31:13.381Z,97583.77
2022-08-21T10:33:46.685Z,97586.23
2022-08-21T10:36:15.898Z,97579.89
2022-08-21T10:39:25.217Z,97577.47
2022-08-21T10:42:28.064Z,97574.14
2022-08-21T10:44:59.453Z,97573.75
2022-08-21T10:47:43.435Z,97576.13
2022-08-21T10:50:10.922Z,97575.42
2022-08-21T10:53:12.304Z,97569.76
2022-08-21T10:55:46.150Z,97570.91
2022-08-21T10:58:18.383Z,97567.66
2022-08-21T11:00:51.248Z,97571.78
2022-08-21T11:03:39.003Z,97568.20
2022-08-21T11:06:20.690Z,97566.88
2022-08-21T11:08:52.392Z,97564.13
2022-08-21T11:11:35.723Z,97567.05
2022-08-21T11:14:41.526Z,97561.56
2022-08-21T11:17:21.842Z,97554.96
2022-08-21T11:19:51.745Z,97555.25
2022-08-21T11:22:22.793Z,97554.72
2022-08-21T11:25:16.202Z,97553.48
2022-08-21T11:28:08.759Z,97553.28
2022-08-21T11:30:44.810Z,97545.34
2022-08-21T11:33:40.354Z,97551.31
2022-08-21T11:36:24.681Z,97547.27
2022-08-21T11:39:22.283Z,97540.70
2022-08-21T11:41:55.943Z,97544.94
2022-08-21T11:44:45.524Z,97541.27
2022-08-21T11:47:16.529Z,97541.01
2022-08-21T11:50:34.516Z,97545.30
2022-08-21T11:53:35.340Z,97536.65
2022-08-21T11:56:10.579Z,97533.91
2022-08-21T11:58:45.311Z,97531.25
2022-08-21T12:01:16.371Z,97526.46
2022-08-21T12:03:52.968Z,97533.02
2022-08-21T12:06:32.574Z,97527.66
2022-08-21T12:09:02.996Z,97522.14
2022-08-21T12:11:31.076Z,97523.65
2022-08-21T12:13:58.521Z,97520.58
2022-08-21T12:16:35.026Z,97522.42
2022-08-21T12:19:11.341Z,97512.47
2022-08-21T12:21:56.048Z,97509.11
2022-08-21T12:24:29.339Z,97501.18
2022-08-21T12:27:02.556Z,97500.58
2022-08-21T12:29:32.709Z,97498.88
2022-08-21T12:32:26.006Z,97501.58
2022-08-21T12:35:04.053Z,97507.19
2022-08-21T12:37:46.389Z,97509.16
2022-08-21T12:40:39.247Z,97513.27
2022-08-21T12:43:06.830Z,97515.04
2022-08-21T12:45:36.038Z,97517.70
2022-08-21T12:48:42.996Z,97520.12
2022-08-21T12:51:18.848Z,97529.89
2022-08-21T12:53:52.906Z,97535.48
2022-08-21T12:56:22.602Z,97536.02
2022-08-21T12:59:00.783Z,97532.25
2022-08-21T13:01:41.938Z,97528.83
2022-08-21T13:04:14.864Z,97530.33
2022-08-21T13:06:44.554Z,97524.59
2022-08-21T13:09:18.244Z,97527.13
2022-08-21T13:11:46.402Z,97531.66
2022-08-21T13:14:30.278Z,97527.47
2022-08-21T13:16:59.163Z,97525.97
2022-08-21T13:19:27.042Z,97527.09
2022-08-21T13:21:54.287Z,97534.02
2022-08-21T13:24:41.826Z,97533.84
2022-08-21T13:27:30.348Z,97535.99
2022-08-21T13:30:09.678Z,97535.44
2022-08-21T13:32:39.246Z,97533.05
2022-08-21T13:35:20.516Z,97531.05
2022-08-21T13:37:48.783Z,97528.75
2022-08-21T13:40:19.251Z,97528.19
2022-08-21T13:42:47.138Z,97521.77
2022-08-21T13:45:16.698Z,97529.21
2022-08-21T13:47:44.464Z,97528.35
2022-08-21T13:50:13.314Z,97525.25
2022-08-21T13:52:58.612Z,97522.52
2022-08-21T13:55:26.655Z,97519.52
2022-08-21T13:58:01.520Z,97520.21
2022-08-21T14:00:30.068Z,97515.16
2022-08-21T14:03:08.341Z,97515.63
2022-08-21T14:05:38.462Z,97518.64
2022-08-21T14:08:21.010Z,97525.95
2022-08-21T14:11:06.981Z,97532.00
2022-08-21T14:13:42.520Z,97532.23
2022-08-21T14:16:28.552Z,97527.17
2022-08-21T14:19:03.996Z,97520.41
2022-08-21T14:21:38.645Z,97519.80
2022-08-21T14:24:26.119Z,97520.79
2022-08-21T14:26:59.716Z,97514.13
2022-08-21T14:29:32.665Z,97519.48
2022-08-21T14:32:21.744Z,97523.34
2022-08-21T14:34:55.188Z,97526.98
2022-08-21T14:37:28.213Z,97528.45
2022-08-21T14:40:05.231Z,97524.52
2022-08-21T14:42:35.249Z,97524.86
2022-08-21T14:45:13.061Z,97529.82
2022-08-21T14:47:43.952Z,97529.90
2022-08-21T14:50:13.181Z,97527.22
2022-08-21T14:52:47.155Z,97525.86
2022-08-21T14:55:15.444Z,97524.71
2022-08-21T14:57:46.579Z,97525.94
2022-08-21T15:00:17.976Z,97527.59
2022-08-21T15:04:49.650Z,97529.05
2022-08-21T15:07:21.889Z,97525.57
2022-08-21T15:09:49.141Z,97533.73
2022-08-21T15:12:17.008Z,97533.36
2022-08-21T15:14:45.794Z,97533.91
2022-08-21T15:17:15.609Z,97530.95
2022-08-21T15:19:42.886Z,97529.91
2022-08-21T15:22:15.352Z,97533.86
2022-08-21T15:24:49.147Z,97538.87
2022-08-21T15:27:22.458Z,97539.30
2022-08-21T15:29:56.517Z,97534.75
2022-08-21T15:32:30.012Z,97536.98
2022-08-21T15:35:05.364Z,97533.66
2022-08-21T15:37:51.185Z,97532.70
2022-08-21T15:40:38.039Z,97536.26
2022-08-21T15:43:05.746Z,97535.87
2022-08-21T15:45:34.136Z,97535.64
2022-08-21T15:48:02.298Z,97535.04
2022-08-21T15:50:29.881Z,97533.64
2022-08-21T15:52:57.116Z,97533.35
2022-08-21T15:55:24.690Z,97532.84
2022-08-21T15:57:57.131Z,97537.56
2022-08-21T16:00:26.884Z,97545.56
2022-08-21T16:02:55.535Z,97543.75
2022-08-21T16:05:28.629Z,97546.61
2022-08-21T16:07:56.200Z,97547.55
2022-08-21T16:10:24.055Z,97548.64
2022-08-21T16:13:04.135Z,97546.91
2022-08-21T16:15:31.565Z,97547.17
2022-08-21T16:17:58.755Z,97547.80
2022-08-21T16:20:28.625Z,97551.60
2022-08-21T16:22:56.815Z,97552.59
2022-08-21T16:25:24.299Z,97556.56
2022-08-21T16:27:58.638Z,97554.70
2022-08-21T16:30:27.290Z,97548.82
2022-08-21T16:32:54.411Z,97546.67
2022-08-21T16:35:25.467Z,97544.38
2022-08-21T16:37:53.500Z,97541.66
2022-08-21T16:40:24.257Z,97546.20
2022-08-21T16:42:51.619Z,97547.98
2022-08-21T16:45:22.350Z,97553.47
2022-08-21T16:47:50.151Z,97555.77
2022-08-21T16:50:23.050Z,97556.84
2022-08-21T16:52:50.802Z,97559.01
2022-08-21T16:55:21.026Z,97565.19
2022-08-21T16:57:48.339Z,97564.48
2022-08-21T17:00:16.206Z,97565.40
2022-08-21T17:02:46.058Z,97564.85
2022-08-21T17:05:13.811Z,97567.85
2022-08-21T17:07:42.362Z,97572.06
2022-08-21T17:10:10.235Z,97575.46
2022-08-21T17:12:51.982Z,97579.42
2022-08-21T17:15:23.655Z,97582.80
2022-08-21T17:17:58.150Z,97585.61
2022-08-21T17:20:26.273Z,97588.13
2022-08-21T17:22:53.528Z,97593.20
2022-08-21T17:25:22.947Z,97594.09
2022-08-21T17:27:50.788Z,97597.38
2022-08-21T17:30:18.259Z,97596.63
2022-08-21T17:32:45.703Z,97601.16
2022-08-21T17:35:16.233Z,97602.70
2022-08-21T17:37:43.665Z,97604.98
2022-08-21T17:40:15.359Z,97605.27
2022-08-21T17:42:43.519Z,97605.38
2022-08-21T17:45:11.566Z,97606.77
2022-08-21T17:47:39.253Z,97607.12
2022-08-21T17:50:07.448Z,97607.04
2022-08-21T17:52:35.406Z,97608.67
2022-08-21T17:55:03.504Z,97607.84
2022-08-21T17:57:35.461Z,97613.98
2022-08-21T18:00:04.020Z,97609.40
2022-08-21T18:02:42.465Z,97616.65
2022-08-21T18:05:11.007Z,97618.02
2022-08-21T18:07:43.178Z,97619.46
2022-08-21T18:10:11.837Z,97621.55
2022-08-21T18:12:42.937Z,97622.39
2022-08-21T18:15:14.584Z,97627.05
2022-08-21T18:17:42.628Z,97625.45
2022-08-21T18:20:11.646Z,97630.70
2022-08-21T18:22:42.560Z,97631.84
2022-08-21T18:25:10.281Z,97630.54
2022-08-21T18:27:42.809Z,97630.11
2022-08-21T18:30:10.968Z,97627.61
2022-08-21T18:32:38.138Z,97628.44
2022-08-21T18:35:06.303Z,97628.41
2022-08-21T18:37:33.859Z,97628.34
2022-08-21T18:40:01.190Z,97628.86
2022-08-21T18:42:38.351Z,97628.13
2022-08-21T18:45:13.805Z,97628.58
2022-08-21T18:47:46.732Z,97626.98
2022-08-21T18:50:21.733Z,97628.63
2022-08-21T18:52:52.732Z,97632.64
2022-08-21T18:55:24.452Z,97633.06
2022-08-21T18:57:57.353Z,97635.71
2022-08-21T19:00:32.267Z,97643.77
2022-08-21T19:03:00.834Z,97646.77
2022-08-21T19:05:30.056Z,97646.83
2022-08-21T19:07:59.182Z,97648.30
2022-08-21T19:10:29.589Z,97643.92
2022-08-21T19:13:02.255Z,97642.67
2022-08-21T19:15:37.387Z,97632.95
2022-08-21T19:18:06.962Z,97626.42
2022-08-21T19:21:08.380Z,97620.93
2022-08-21T19:23:37.599Z,97625.02
2022-08-21T19:26:10.016Z,97621.23
2022-08-21T19:28:40.853Z,97619.38
2022-08-21T19:31:32.674Z,97617.66
2022-08-21T19:34:01.863Z,97613.47
2022-08-21T19:36:30.363Z,97615.48
2022-08-21T19:38:57.514Z,97616.36
2022-08-21T19:41:27.890Z,97612.95
2022-08-21T19:43:56.663Z,97607.80
2022-08-21T19:46:28.852Z,97599.35
2022-08-21T19:48:59.215Z,97586.27
2022-08-21T19:51:26.389Z,97580.02
2022-08-21T19:53:56.927Z,97582.93
2022-08-21T19:56:26.296Z,97576.86
2022-08-21T19:58:53.940Z,97580.61
2022-08-21T20:01:22.233Z,97584.34
2022-08-21T20:03:54.259Z,97586.30
2022-08-21T20:06:24.055Z,97586.69
2022-08-21T20:08:51.983Z,97586.77
2022-08-21T20:11:47.213Z,97584.96
2022-08-21T20:14:15.637Z,97583.23
2022-08-21T20:16:42.937Z,97581.82
2022-08-21T20:19:10.395Z,97578.80
2022-08-21T20:21:43.794Z,97575.23
2022-08-21T20:24:14.853Z,97575.10
2022-08-21T20:26:48.788Z,97575.83
2022-08-21T20:32:12.067Z,97572.05
2022-08-21T20:34:41.003Z,97577.02
2022-08-21T20:37:09.163Z,97580.98
2022-08-21T20:39:36.959Z,97578.05
2022-08-21T20:42:05.149Z,97581.19
2022-08-21T20:44:34.711Z,97588.42
2022-08-21T20:47:08.658Z,97578.77
2022-08-21T20:49:45.393Z,97581.46
2022-08-21T20:52:13.579Z,97571.49
2022-08-21T20:55:04.183Z,97569.03
2022-08-21T20:57:52.927Z,97572.25
2022-08-21T21:00:21.240Z,97569.53
2022-08-21T21:03:14.689Z,97567.33
2022-08-21T21:06:01.936Z,97568.28
2022-08-21T21:08:31.739Z,97565.69
2022-08-21T21:11:15.969Z,97557.81
2022-08-21T21:14:18.234Z,97566.29
2022-08-21T21:16:59.914Z,97569.39
2022-08-21T21:19:30.032Z,97568.05
2022-08-21T21:22:32.515Z,97569.68
2022-08-21T21:25:18.501Z,97571.36
2022-08-21T21:27:58.759Z,97573.04
2022-08-21T21:30:37.073Z,97576.45
2022-08-21T21:33:04.729Z,97578.75
2022-08-21T21:35:53.832Z,97579.61
2022-08-21T21:38:27.293Z,97580.39
2022-08-21T21:41:02.634Z,97583.10
2022-08-21T21:43:43.737Z,97582.25
2022-08-21T21:46:25.201Z,97577.64
2022-08-21T21:49:26.139Z,97575.72
2022-08-21T21:52:28.533Z,97575.45
2022-08-21T21:55:38.266Z,97580.27
2022-08-21T21:58:16.772Z,97586.29
2022-08-21T22:01:11.814Z,97590.90
2022-08-21T22:03:46.434Z,97596.03
2022-08-21T22:06:18.368Z,97594.01
2022-08-21T22:08:58.022Z,97597.92
2022-08-21T22:12:02.446Z,97599.14
2022-08-21T22:14:33.997Z,97599.67
2022-08-21T22:17:15.065Z,97601.10
2022-08-21T22:19:43.166Z,97601.62
2022-08-21T22:22:20.635Z,97601.98
2022-08-21T22:24:50.130Z,97600.81
2022-08-21T22:27:29.783Z,97596.70
2022-08-21T22:29:59.728Z,97601.91
2022-08-21T22:32:31.758Z,97604.58
2022-08-21T22:35:05.825Z,97607.50
2022-08-21T22:37:44.909Z,97605.64
2022-08-21T22:40:20.742Z,97602.45
2022-08-21T22:43:08.307Z,97604.95
2022-08-21T22:45:57.479Z,97604.20
2022-08-21T22:48:28.206Z,97600.61
2022-08-21T22:51:13.041Z,97595.84
2022-08-21T22:53:42.616Z,97596.70
2022-08-21T22:56:10.715Z,97596.79
2022-08-21T22:58:53.956Z,97599.59
2022-08-21T23:01:21.399Z,97598.38
2022-08-21T23:03:53.370Z,97598.09
2022-08-21T23:06:33.914Z,97599.40
2022-08-21T23:09:01.899Z,97599.29
2022-08-21T23:11:40.852Z,97607.35
2022-08-21T23:14:17.729Z,97607.27
2022-08-21T23:17:10.868Z,97608.88
2022-08-21T23:20:02.600Z,97607.27
2022-08-21T23:22:42.215Z,97603.48
2022-08-21T23:25:28.320Z,97602.05
2022-08-21T23:28:33.434Z,97594.58
2022-08-21T23:31:05.043Z,97589.63
2022-08-21T23:33:58.791Z,97586.40
2022-08-21T23:37:06.086Z,97585.79
2022-08-21T23:39:46.711Z,97589.39
2022-08-21T23:42:50.987Z,97579.16
2022-08-21T23:45:24.325Z,97580.54
2022-08-21T23:48:04.517Z,97585.83
2022-08-21T23:50:53.838Z,97587.19
2022-08-21T23:53:37.635Z,97588.57
2022-08-21T23:56:26.181Z,97589.09
2022-08-21T23:59:22.457Z,97592.78
